Time;durP1;ratioP1;P1;durP2;ratioP2;P2;SDS_P1;SDS_P2;PMS_P1;PMS_P2;Temp;Humidity;BMP_temperature;BMP_pressure;BME280_temperature;BME280_humidity;BME280_pressure;Samples;Min_cycle;Max_cycle;Signal;HPM_P1;HPM_P2
2022/12/23 00:00:45;;;;;;;14.77;7.50;;;;;;;;;;4997433;28;20210;-52
2022/12/23 00:03:11;;;;;;;13.83;7.33;;;9.60;99.90;;;;;;5011926;28;20171;-52
2022/12/23 00:05:38;;;;;;;15.93;8.30;;;9.60;99.90;;;;;;5012519;28;20284;-51
2022/12/23 00:08:04;;;;;;;18.83;8.17;;;;;;;;;;5011699;28;20179;-51
2022/12/23 00:10:30;;;;;;;12.80;7.63;;;9.30;99.90;;;;;;5012478;28;20171;-51
2022/12/23 00:15:40;;;;;;;12.97;7.83;;;;;;;;;;5011482;28;20177;-49
2022/12/23 00:18:06;;;;;;;16.37;7.87;;;;;;;;;;5011961;28;20218;-49
2022/12/23 00:20:33;;;;;;;15.53;7.90;;;;;;;;;;5012424;28;20175;-51
2022/12/23 00:23:05;;;;;;;14.00;7.40;;;;;;;;;;5012399;28;20187;-50
2022/12/23 00:25:41;;;;;;;13.33;7.50;;;9.70;99.90;;;;;;5012325;28;20248;-51
2022/12/23 00:28:14;;;;;;;15.37;7.30;;;9.30;99.90;;;;;;5011944;28;20642;-53
2022/12/23 00:31:01;;;;;;;13.47;7.47;;;9.50;99.90;;;;;;5012032;28;20186;-51
2022/12/23 00:33:29;;;;;;;15.17;7.87;;;9.60;99.90;;;;;;5004740;28;20226;-49
2022/12/23 00:35:56;;;;;;;16.97;7.30;;;9.40;99.90;;;;;;5011992;28;20202;-53
2022/12/23 00:43:56;;;;;;;14.80;6.83;;;;;;;;;;5011740;28;20189;-51
2022/12/23 00:46:22;;;;;;;15.10;6.30;;;;;;;;;;5011688;28;20237;-52
2022/12/23 00:51:32;;;;;;;13.80;6.67;;;9.60;99.90;;;;;;5011579;28;20204;-52
2022/12/23 00:53:58;;;;;;;16.00;6.73;;;9.40;99.90;;;;;;5011613;28;20182;-51
2022/12/23 00:56:23;;;;;;;15.93;6.70;;;9.30;99.90;;;;;;5011552;28;20214;-53
2022/12/23 00:58:50;;;;;;;15.13;6.93;;;;;;;;;;5008874;28;20214;-53
2022/12/23 01:06:44;;;;;;;12.03;6.40;;;;;;;;;;5010940;28;20185;-51
2022/12/23 01:09:10;;;;;;;15.37;7.07;;;9.60;99.90;;;;;;5011084;28;20174;-51
2022/12/23 01:11:36;;;;;;;23.67;7.67;;;9.60;99.90;;;;;;5010946;28;20178;-53
2022/12/23 01:14:01;;;;;;;16.87;7.83;;;9.60;99.90;;;;;;5011731;28;20579;-50
2022/12/23 01:16:27;;;;;;;18.37;8.03;;;;;;;;;;5010519;28;20645;-50
2022/12/23 01:18:53;;;;;;;13.37;7.63;;;;;;;;;;5011213;28;20178;-51
2022/12/23 01:21:19;;;;;;;15.03;7.57;;;9.20;99.90;;;;;;5011271;28;20209;-50
2022/12/23 01:23:45;;;;;;;20.17;7.87;;;9.40;99.90;;;;;;5010866;28;20525;-51
2022/12/23 01:26:11;;;;;;;13.67;6.97;;;;;;;;;;5011069;28;20246;-52
2022/12/23 01:28:37;;;;;;;16.93;8.13;;;;;;;;;;5003707;28;20194;-52
2022/12/23 01:31:05;;;;;;;17.27;7.73;;;9.40;99.90;;;;;;5010988;28;20221;-53
2022/12/23 01:33:32;;;;;;;16.33;7.60;;;9.80;99.90;;;;;;5010082;28;20179;-51
2022/12/23 01:36:06;;;;;;;19.73;7.40;;;9.50;99.90;;;;;;5011152;28;20182;-51
2022/12/23 01:38:35;;;;;;;17.53;7.90;;;9.40;99.90;;;;;;5011031;28;20265;-54
2022/12/23 01:41:01;;;;;;;15.03;7.73;;;;;;;;;;5008915;28;20187;-53
2022/12/23 01:43:48;;;;;;;22.33;7.93;;;9.50;99.90;;;;;;5011157;28;20213;-52
2022/12/23 01:46:14;;;;;;;15.90;7.03;;;;;;;;;;5011018;28;20182;-51
2022/12/23 01:48:46;;;;;;;17.00;7.40;;;9.50;99.90;;;;;;5010268;28;20265;-51
2022/12/23 01:51:18;;;;;;;22.83;7.83;;;9.30;99.90;;;;;;5014345;28;20178;-51
2022/12/23 01:53:47;;;;;;;18.37;7.90;;;;;;;;;;5017723;28;20186;-52
2022/12/23 01:56:14;;;;;;;18.77;7.93;;;9.50;99.90;;;;;;5017396;28;20182;-50
2022/12/23 01:58:43;;;;;;;13.73;7.47;;;;;;;;;;5017152;28;20268;-50
2022/12/23 02:04:03;;;;;;;17.70;7.60;;;9.40;99.90;;;;;;5017604;28;20321;-54
2022/12/23 02:09:32;;;;;;;18.97;7.80;;;9.40;99.90;;;;;;5008995;28;20186;-50
2022/12/23 02:11:58;;;;;;;20.10;7.60;;;;;;;;;;5016946;28;20182;-50
2022/12/23 02:17:46;;;;;;;13.97;7.13;;;9.40;99.90;;;;;;5017476;28;20625;-51
2022/12/23 02:20:27;;;;;;;14.17;6.67;;;9.20;99.90;;;;;;5017304;28;20174;-50
2022/12/23 02:23:30;;;;;;;13.50;6.67;;;9.50;99.90;;;;;;5017391;28;20641;-51
2022/12/23 02:26:49;;;;;;;17.77;7.30;;;9.40;99.90;;;;;;5014295;28;20325;-51
2022/12/23 02:29:35;;;;;;;14.33;7.07;;;9.40;99.90;;;;;;4974597;28;20176;-51
2022/12/23 02:32:32;;;;;;;14.47;6.10;;;9.40;99.90;;;;;;4990471;28;20175;-52
2022/12/23 02:34:58;;;;;;;14.20;6.00;;;;;;;;;;5029437;28;20189;-50
2022/12/23 02:37:49;;;;;;;11.73;6.00;;;9.30;99.90;;;;;;5037042;28;20213;-51
2022/12/23 02:40:25;;;;;;;10.37;6.07;;;9.40;99.90;;;;;;5036980;28;20170;-50
2022/12/23 02:43:07;;;;;;;15.00;6.30;;;9.50;99.90;;;;;;5037036;28;20165;-52
2022/12/23 02:45:53;;;;;;;15.37;6.20;;;9.40;99.90;;;;;;5025952;28;20174;-50
2022/12/23 02:48:30;;;;;;;12.80;6.20;;;9.50;99.90;;;;;;5016650;28;20212;-50
2022/12/23 02:50:57;;;;;;;13.23;5.93;;;9.40;99.90;;;;;;5016870;28;20265;-50
2022/12/23 02:53:48;;;;;;;13.13;5.77;;;9.50;99.90;;;;;;5016864;28;20181;-51
2022/12/23 02:56:16;;;;;;;13.87;6.53;;;9.60;99.90;;;;;;5016305;28;20182;-51
2022/12/23 02:59:03;;;;;;;16.60;6.20;;;9.40;99.90;;;;;;5016342;28;20198;-50
2022/12/23 03:01:32;;;;;;;12.37;6.30;;;9.40;99.90;;;;;;5016507;28;20672;-51
2022/12/23 03:03:58;;;;;;;10.93;6.60;;;;;;;;;;5012917;28;20189;-51
2022/12/23 03:06:39;;;;;;;16.10;6.40;;;9.50;99.90;;;;;;5012165;28;20189;-53
2022/12/23 03:09:06;;;;;;;13.23;7.00;;;9.40;99.90;;;;;;5009473;28;20270;-55
2022/12/23 03:12:02;;;;;;;15.03;6.67;;;9.30;99.90;;;;;;5013080;28;20225;-51
2022/12/23 03:15:03;;;;;;;13.70;6.70;;;9.40;99.90;;;;;;5009585;28;20179;-52
2022/12/23 03:17:59;;;;;;;17.40;6.80;;;9.10;99.90;;;;;;5000356;28;20222;-51
2022/12/23 03:20:31;;;;;;;12.20;6.83;;;9.30;99.90;;;;;;5005380;28;20213;-51
2022/12/23 03:23:24;;;;;;;16.07;6.50;;;9.50;99.90;;;;;;5012224;28;20186;-57
2022/12/23 03:26:01;;;;;;;13.47;6.80;;;9.40;99.90;;;;;;5012600;28;20213;-52
2022/12/23 03:28:33;;;;;;;15.93;6.23;;;9.50;99.90;;;;;;5012515;28;20178;-51
2022/12/23 03:31:01;;;;;;;16.33;5.97;;;9.00;99.90;;;;;;5011000;28;20261;-54
2022/12/23 03:33:34;;;;;;;11.20;5.30;;;9.60;99.90;;;;;;5012885;28;20178;-50
2022/12/23 03:36:10;;;;;;;12.03;5.53;;;9.40;99.90;;;;;;5013447;28;20174;-51
2022/12/23 03:38:38;;;;;;;13.57;5.30;;;9.50;99.90;;;;;;5011979;28;20262;-51
2022/12/23 03:41:08;;;;;;;11.47;6.30;;;9.40;99.90;;;;;;5012948;28;20178;-51
2022/12/23 03:43:42;;;;;;;13.13;5.07;;;9.80;99.90;;;;;;5012969;28;20217;-53
2022/12/23 03:46:29;;;;;;;8.53;4.20;;;9.50;99.90;;;;;;5013100;28;20210;-52
2022/12/23 03:48:59;;;;;;;9.00;4.60;;;9.50;99.90;;;;;;5012136;28;20226;-53
2022/12/23 03:51:33;;;;;;;8.73;4.73;;;9.40;99.90;;;;;;5008037;28;20187;-50
2022/12/23 03:54:03;;;;;;;7.87;3.80;;;9.40;99.90;;;;;;5003047;28;20228;-51
2022/12/23 03:56:37;;;;;;;10.60;4.53;;;9.60;99.90;;;;;;5012935;28;20298;-51
2022/12/23 03:59:19;;;;;;;12.83;5.60;;;9.60;99.90;;;;;;5012687;28;20269;-52
2022/12/23 04:02:02;;;;;;;8.97;3.67;;;9.50;99.90;;;;;;5012375;28;20225;-50
2022/12/23 04:04:57;;;;;;;11.67;4.23;;;9.40;99.90;;;;;;5012062;28;20669;-51
2022/12/23 04:07:23;;;;;;;7.80;3.20;;;;;;;;;;5009341;28;20217;-52
2022/12/23 04:09:50;;;;;;;5.93;3.47;;;;;;;;;;5011644;28;20225;-52
2022/12/23 04:12:16;;;;;;;11.17;2.80;;;9.80;99.90;;;;;;5012359;28;20167;-51
2022/12/23 04:14:47;;;;;;;5.63;2.70;;;9.50;99.90;;;;;;5012380;28;20202;-51
2022/12/23 04:17:13;;;;;;;4.73;2.57;;;9.50;99.90;;;;;;5004752;28;20230;-50
2022/12/23 04:19:40;;;;;;;3.40;2.10;;;;;;;;;;5012528;28;20637;-50
2022/12/23 04:22:05;;;;;;;11.07;2.40;;;9.40;99.90;;;;;;5012588;28;20538;-50
2022/12/23 04:24:31;;;;;;;5.17;2.07;;;;;;;;;;5012476;28;20178;-50
2022/12/23 04:26:57;;;;;;;4.93;2.10;;;;;;;;;;5012400;28;20796;-51
2022/12/23 04:29:23;;;;;;;5.63;2.30;;;;;;;;;;5012331;28;20210;-50
2022/12/23 04:31:49;;;;;;;4.63;2.30;;;;;;;;;;5012316;28;20194;-52
2022/12/23 04:34:15;;;;;;;8.00;2.57;;;;;;;;;;5012279;28;20263;-50
2022/12/23 04:36:41;;;;;;;5.50;2.40;;;;;;;;;;5012240;28;20216;-51
2022/12/23 04:39:08;;;;;;;5.57;2.17;;;9.50;99.90;;;;;;5012317;28;20183;-53
2022/12/23 04:41:34;;;;;;;8.27;2.50;;;;;;;;;;5011733;28;20200;-51
2022/12/23 04:44:00;;;;;;;7.70;3.13;;;9.40;99.90;;;;;;5011720;28;20660;-50
2022/12/23 04:46:26;;;;;;;4.87;2.60;;;;;;;;;;5011847;28;20273;-50
2022/12/23 04:48:51;;;;;;;3.83;2.50;;;9.30;99.90;;;;;;5011374;28;20332;-50
2022/12/23 04:51:17;;;;;;;7.40;2.53;;;9.30;99.90;;;;;;5011382;28;20178;-49
2022/12/23 04:53:43;;;;;;;8.40;2.87;;;;;;;;;;5011673;28;20213;-51
2022/12/23 04:56:09;;;;;;;5.03;2.43;;;;;;;;;;5011733;28;20191;-50
2022/12/23 04:58:35;;;;;;;7.00;2.80;;;;;;;;;;5011676;28;20190;-50
2022/12/23 05:01:06;;;;;;;6.00;2.90;;;9.40;99.90;;;;;;5011719;28;20233;-51
2022/12/23 05:03:33;;;;;;;15.87;3.67;;;;;;;;;;5011199;28;20186;-51
2022/12/23 05:05:59;;;;;;;11.03;3.13;;;;;;;;;;5011743;28;20175;-50
2022/12/23 05:08:24;;;;;;;8.30;3.40;;;9.40;99.90;;;;;;5011233;28;20182;-57
2022/12/23 05:10:50;;;;;;;9.87;3.53;;;;;;;;;;5001839;28;20492;-54
2022/12/23 05:13:16;;;;;;;9.67;3.50;;;;;;;;;;5011118;28;20229;-50
2022/12/23 05:15:48;;;;;;;5.90;3.77;;;9.20;99.90;;;;;;5003056;28;20202;-51
2022/12/23 05:18:14;;;;;;;6.07;3.90;;;;;;;;;;5003803;28;20676;-51
2022/12/23 05:20:39;;;;;;;6.27;3.87;;;9.30;99.90;;;;;;4996235;28;20197;-51
2022/12/23 05:23:05;;;;;;;6.87;3.70;;;;;;;;;;5011208;28;20182;-50
2022/12/23 05:25:36;;;;;;;4.73;3.17;;;9.40;99.90;;;;;;5010713;28;20211;-50
2022/12/23 05:28:02;;;;;;;6.97;3.53;;;9.20;99.90;;;;;;5007104;28;20182;-50
2022/12/23 05:30:28;;;;;;;8.73;3.43;;;9.10;99.90;;;;;;4999055;28;20269;-51
2022/12/23 05:32:56;;;;;;;7.63;3.10;;;9.20;99.90;;;;;;5011221;28;20265;-52
2022/12/23 05:35:23;;;;;;;4.47;3.10;;;8.20;99.90;;;;;;5010816;28;20183;-52
2022/12/23 05:37:49;;;;;;;7.77;3.30;;;9.00;99.90;;;;;;5010474;28;20230;-51
2022/12/23 05:40:15;;;;;;;6.93;3.20;;;;;;;;;;5010890;28;20163;-52
2022/12/23 05:42:41;;;;;;;5.77;2.90;;;;;;;;;;5010970;28;20684;-52
2022/12/23 05:45:07;;;;;;;8.63;3.43;;;9.20;99.90;;;;;;5010374;28;20187;-54
2022/12/23 05:47:33;;;;;;;13.03;3.77;;;;;;;;;;5010970;28;20182;-52
2022/12/23 05:49:59;;;;;;;5.50;3.17;;;9.00;99.90;;;;;;5010508;28;20739;-51
2022/12/23 05:52:26;;;;;;;3.80;2.80;;;9.20;99.90;;;;;;5010569;28;20576;-51
2022/12/23 05:54:52;;;;;;;8.03;2.33;;;;;;;;;;5010373;28;20550;-51
2022/12/23 05:57:18;;;;;;;4.67;2.87;;;8.90;99.90;;;;;;5010475;28;20317;-51
2022/12/23 05:59:44;;;;;;;4.47;2.60;;;;;;;;;;5011094;28;20665;-51
2022/12/23 06:02:10;;;;;;;6.87;3.07;;;8.80;99.90;;;;;;5010645;28;20248;-51
2022/12/23 06:04:36;;;;;;;3.00;2.30;;;;;;;;;;5010547;28;20175;-51
2022/12/23 06:07:02;;;;;;;8.40;2.70;;;;;;;;;;5003306;28;20198;-54
2022/12/23 06:09:28;;;;;;;6.13;3.13;;;;;;;;;;5010265;28;20689;-51
2022/12/23 06:11:53;;;;;;;4.60;3.23;;;8.90;99.90;;;;;;5008769;28;20277;-51
2022/12/23 06:14:19;;;;;;;10.80;3.60;;;;;;;;;;5003829;28;20182;-51
2022/12/23 06:16:45;;;;;;;6.17;3.00;;;;;;;;;;5010919;28;20241;-51
2022/12/23 06:19:11;;;;;;;6.40;3.40;;;;;;;;;;5010676;28;20218;-51
2022/12/23 06:21:37;;;;;;;6.13;3.10;;;9.00;99.90;;;;;;5010875;28;20253;-51
2022/12/23 06:24:03;;;;;;;4.83;3.33;;;;;;;;;;5010779;28;20186;-51
2022/12/23 06:26:29;;;;;;;9.40;3.57;;;9.40;99.90;;;;;;5010851;28;21136;-51
2022/12/23 06:28:55;;;;;;;7.70;3.40;;;;;;;;;;5010949;28;20610;-51
2022/12/23 06:31:21;;;;;;;5.67;3.37;;;;;;;;;;5010773;28;20179;-51
2022/12/23 06:33:46;;;;;;;9.27;3.87;;;9.00;99.90;;;;;;5010765;28;20178;-53
2022/12/23 06:36:12;;;;;;;6.20;3.23;;;9.20;99.90;;;;;;5010643;28;20764;-51
2022/12/23 06:38:38;;;;;;;9.33;3.03;;;;;;;;;;5012953;28;20179;-52
2022/12/23 06:41:04;;;;;;;6.60;3.03;;;;;;;;;;5013131;28;20256;-52
2022/12/23 06:43:30;;;;;;;5.13;3.03;;;;;;;;;;5014087;28;20232;-51
2022/12/23 06:45:56;;;;;;;5.13;2.67;;;9.40;99.90;;;;;;5014249;28;20178;-51
2022/12/23 06:48:22;;;;;;;7.67;2.83;;;;;;;;;;5013949;28;20214;-52
2022/12/23 06:50:48;;;;;;;4.83;2.73;;;;;;;;;;5013872;28;20245;-50
2022/12/23 06:53:14;;;;;;;4.27;2.70;;;;;;;;;;5013952;28;20577;-53
2022/12/23 06:55:40;;;;;;;5.23;2.77;;;;;;;;;;5013608;28;20183;-52
2022/12/23 06:58:06;;;;;;;16.37;2.90;;;;;;;;;;5013661;28;20269;-52
2022/12/23 07:00:32;;;;;;;3.80;2.10;;;;;;;;;;5007757;28;20174;-51
2022/12/23 07:02:58;;;;;;;2.90;2.10;;;;;;;;;;5010017;28;20592;-51
2022/12/23 07:05:24;;;;;;;3.80;2.10;;;9.00;99.90;;;;;;5001183;28;20705;-51
2022/12/23 07:07:49;;;;;;;5.97;1.93;;;9.30;99.90;;;;;;4999795;28;20275;-51
2022/12/23 07:10:15;;;;;;;3.80;1.80;;;;;;;;;;5014100;28;20179;-52
2022/12/23 07:12:41;;;;;;;3.00;1.70;;;;;;;;;;5013904;28;20224;-50
2022/12/23 07:15:08;;;;;;;57.37;3.53;;;9.20;99.90;;;;;;5013706;28;20640;-50
2022/12/23 07:17:34;;;;;;;1.40;1.20;;;9.10;99.90;;;;;;5011948;28;20609;-51
2022/12/23 07:19:59;;;;;;;2.00;1.30;;;9.10;99.90;;;;;;5008651;28;20175;-50
2022/12/23 07:22:25;;;;;;;1.67;1.10;;;;;;;;;;5001992;28;20212;-53
2022/12/23 07:24:51;;;;;;;1.33;1.10;;;;;;;;;;5012261;28;20206;-51
2022/12/23 07:27:17;;;;;;;1.13;1.03;;;9.20;99.90;;;;;;5007171;28;20513;-52
2022/12/23 07:29:43;;;;;;;2.67;1.10;;;;;;;;;;5012866;28;20256;-52
2022/12/23 07:32:09;;;;;;;177.90;6.37;;;;;;;;;;5013145;28;20232;-52
2022/12/23 07:34:35;;;;;;;1.27;1.00;;;9.30;99.90;;;;;;5013524;28;20178;-52
2022/12/23 07:37:01;;;;;;;4.63;1.00;;;;;;;;;;5012637;28;20707;-51
2022/12/23 07:39:27;;;;;;;1.47;0.90;;;;;;;;;;5012189;28;20193;-53
2022/12/23 07:41:53;;;;;;;2.07;1.30;;;;;;;;;;5012828;28;20182;-53
2022/12/23 07:44:19;;;;;;;1.10;0.90;;;9.60;99.90;;;;;;5013140;28;20174;-54
2022/12/23 07:46:44;;;;;;;2.97;1.10;;;9.10;99.90;;;;;;5013126;28;20171;-56
2022/12/23 07:49:10;;;;;;;1.93;1.00;;;;;;;;;;5012435;28;20234;-55
2022/12/23 07:51:36;;;;;;;2.53;1.30;;;;;;;;;;5012984;28;20175;-54
2022/12/23 07:54:02;;;;;;;55.23;2.40;;;;;;;;;;5013161;28;20200;-55
2022/12/23 07:56:28;;;;;;;3.30;0.90;;;9.20;99.90;;;;;;5007186;28;20202;-54
2022/12/23 07:58:54;;;;;;;1.10;0.90;;;9.10;99.90;;;;;;5002462;28;20311;-54
2022/12/23 08:01:20;;;;;;;3.63;1.17;;;9.40;99.90;;;;;;5010392;28;20199;-55
2022/12/23 08:03:46;;;;;;;1.43;1.00;;;9.30;99.90;;;;;;5011840;28;20174;-55
2022/12/23 08:06:14;;;;;;;1.87;1.30;;;9.40;99.90;;;;;;5012242;28;20163;-54
2022/12/23 08:08:40;;;;;;;1.37;0.90;;;8.10;99.90;;;;;;5012722;28;20179;-54
2022/12/23 08:11:08;;;;;;;2.60;1.10;;;9.30;99.90;;;;;;5012749;28;20221;-54
2022/12/23 08:13:37;;;;;;;1.10;1.00;;;9.40;99.90;;;;;;5012839;28;20614;-54
2022/12/23 08:16:04;;;;;;;0.90;0.70;;;9.20;99.90;;;;;;5012489;28;20182;-54
2022/12/23 08:18:33;;;;;;;1.60;1.10;;;9.40;99.90;;;;;;5012580;28;20273;-54
2022/12/23 08:21:03;;;;;;;2.57;1.33;;;9.30;99.90;;;;;;5012660;28;20189;-54
2022/12/23 08:23:30;;;;;;;1.97;1.20;;;9.50;99.90;;;;;;5012525;28;20179;-54
2022/12/23 08:26:04;;;;;;;1.70;1.17;;;9.30;99.90;;;;;;5012401;28;20186;-54
2022/12/23 08:28:30;;;;;;;3.50;1.40;;;;;;;;;;5011780;28;20266;-50
2022/12/23 08:31:05;;;;;;;1.40;1.30;;;9.40;99.90;;;;;;5007402;28;20167;-50
2022/12/23 08:33:32;;;;;;;3.70;1.10;;;9.50;99.90;;;;;;5006301;28;20256;-51
2022/12/23 08:35:59;;;;;;;3.23;1.70;;;;;;;;;;5012268;28;20182;-50
2022/12/23 08:38:25;;;;;;;2.53;1.60;;;;;;;;;;5012094;28;20214;-51
2022/12/23 08:40:50;;;;;;;3.20;1.77;;;9.50;99.90;;;;;;5012205;28;20193;-53
2022/12/23 08:43:16;;;;;;;2.40;2.00;;;;;;;;;;5012066;28;20634;-51
2022/12/23 08:45:42;;;;;;;5.63;1.63;;;9.70;99.90;;;;;;5011920;28;20244;-52
2022/12/23 08:48:08;;;;;;;2.77;1.80;;;9.40;99.90;;;;;;5012021;28;20681;-55
2022/12/23 08:50:42;;;;;;;4.07;2.00;;;9.60;99.90;;;;;;5011295;28;20634;-50
2022/12/23 08:53:08;;;;;;;3.90;1.87;;;;;;;;;;5006002;28;20255;-51
2022/12/23 08:55:43;;;;;;;3.03;1.97;;;9.80;99.90;;;;;;5011906;28;20202;-50
2022/12/23 08:58:10;;;;;;;4.17;2.17;;;10.00;99.90;;;;;;5010910;28;20213;-52
2022/12/23 09:00:36;;;;;;;4.13;2.03;;;;;;;;;;5010882;28;20252;-52
2022/12/23 09:03:02;;;;;;;3.87;2.80;;;9.60;99.90;;;;;;5011314;28;20171;-51
2022/12/23 09:05:28;;;;;;;3.53;2.10;;;9.60;99.90;;;;;;5011351;28;20170;-55
2022/12/23 09:07:54;;;;;;;5.43;2.40;;;;;;;;;;5011791;28;20178;-53
2022/12/23 09:10:22;;;;;;;5.37;3.00;;;;;;;;;;5011597;28;20652;-53
2022/12/23 09:12:48;;;;;;;5.87;3.13;;;9.90;99.90;;;;;;5011258;28;20182;-53
2022/12/23 09:15:14;;;;;;;5.40;2.70;;;9.90;99.90;;;;;;5010668;28;20721;-52
2022/12/23 09:17:40;;;;;;;4.13;2.53;;;9.80;99.90;;;;;;5011703;28;20209;-53
2022/12/23 09:20:06;;;;;;;7.87;3.00;;;10.10;99.90;;;;;;5011446;28;20167;-52
2022/12/23 09:22:32;;;;;;;8.23;3.00;;;10.00;99.90;;;;;;5011428;28;20179;-52
2022/12/23 09:24:59;;;;;;;3.53;2.70;;;;;;;;;;5011367;28;20224;-54
2022/12/23 09:27:24;;;;;;;4.63;2.57;;;10.20;99.90;;;;;;5010733;28;20175;-53
2022/12/23 09:29:50;;;;;;;4.07;3.07;;;;;;;;;;5010210;28;20201;-53
2022/12/23 09:32:16;;;;;;;4.10;2.93;;;10.60;99.90;;;;;;5009217;28;20170;-53
2022/12/23 09:34:42;;;;;;;4.63;3.43;;;10.90;99.90;;;;;;5010038;28;20274;-56
2022/12/23 09:37:07;;;;;;;4.80;3.13;;;11.10;99.90;;;;;;5010949;28;20564;-51
2022/12/23 09:39:33;;;;;;;9.37;3.57;;;11.00;99.90;;;;;;5004146;28;20296;-52
2022/12/23 09:42:00;;;;;;;4.00;3.20;;;;;;;;;;5010286;28;20281;-49
2022/12/23 09:44:26;;;;;;;4.63;3.03;;;;;;;;;;5010911;28;20162;-51
2022/12/23 09:46:58;;;;;;;5.03;3.30;;;10.30;99.90;;;;;;5010536;28;20173;-55
2022/12/23 09:49:24;;;;;;;6.83;3.53;;;;;;;;;;5002074;28;20226;-52
2022/12/23 09:51:54;;;;;;;3.97;2.70;;;10.40;99.90;;;;;;4995797;28;20186;-50
2022/12/23 09:54:28;;;;;;;5.43;2.37;;;10.50;99.90;;;;;;5002136;28;20212;-56
2022/12/23 09:56:58;;;;;;;7.90;2.57;;;10.70;99.90;;;;;;4991442;28;20202;-56
2022/12/23 09:59:35;;;;;;;5.30;2.37;;;10.70;99.90;;;;;;4991544;28;20187;-49
2022/12/23 10:02:21;;;;;;;10.80;2.20;;;11.10;99.90;;;;;;4991454;28;20193;-50
2022/12/23 10:04:49;;;;;;;5.53;2.13;;;11.40;99.90;;;;;;4995589;28;20229;-50
2022/12/23 10:07:37;;;;;;;14.57;2.10;;;11.70;99.90;;;;;;5010926;28;20174;-49
2022/12/23 10:10:16;;;;;;;39.57;5.63;;;11.70;99.90;;;;;;5010926;28;20552;-47
2022/12/23 10:12:46;;;;;;;95.23;12.73;;;12.00;99.90;;;;;;5013604;28;20202;-49
2022/12/23 10:15:38;;;;;;;19.47;3.10;;;12.10;99.90;;;;;;5014225;28;20834;-55
2022/12/23 10:18:21;;;;;;;19.10;2.80;;;12.00;99.90;;;;;;5014896;28;20260;-49
2022/12/23 10:20:52;;;;;;;17.17;2.13;;;12.00;99.90;;;;;;5012565;28;20181;-52
2022/12/23 10:23:32;;;;;;;11.40;1.83;;;12.40;99.90;;;;;;5013384;28;20264;-53
2022/12/23 10:25:59;;;;;;;15.50;3.10;;;12.80;99.90;;;;;;5013293;28;20629;-49
2022/12/23 10:28:24;;;;;;;13.07;2.23;;;12.30;99.90;;;;;;5010211;28;20206;-51
2022/12/23 10:31:08;;;;;;;16.60;2.67;;;12.30;99.90;;;;;;5010904;28;20272;-54
2022/12/23 10:33:48;;;;;;;13.47;2.13;;;12.50;99.90;;;;;;5012854;28;20189;-50
2022/12/23 10:36:27;;;;;;;12.83;2.33;;;13.00;99.90;;;;;;5001019;28;20170;-50
2022/12/23 10:39:04;;;;;;;15.47;2.47;;;13.30;99.90;;;;;;5011995;28;20185;-51
2022/12/23 10:41:41;;;;;;;13.43;2.50;;;14.00;99.90;;;;;;5006194;28;20189;-52
2022/12/23 10:44:27;;;;;;;15.53;2.50;;;14.20;99.90;;;;;;4991615;28;20175;-52
2022/12/23 10:47:12;;;;;;;16.30;2.53;;;14.30;99.90;;;;;;5000201;28;20198;-51
2022/12/23 10:49:59;;;;;;;20.40;3.23;;;14.60;99.90;;;;;;5013772;28;20233;-52
2022/12/23 10:52:28;;;;;;;19.47;2.57;;;15.20;99.90;;;;;;5014334;28;20186;-50
2022/12/23 10:54:54;;;;;;;18.50;3.03;;;;;;;;;;5013788;28;20530;-51
2022/12/23 10:57:22;;;;;;;16.37;2.50;;;15.00;99.90;;;;;;5013333;28;20217;-50
2022/12/23 10:59:48;;;;;;;16.65;2.78;;;;;;;;;;5013408;28;20185;-50
2022/12/23 11:02:14;;;;;;;19.30;3.00;;;;;;;;;;5013165;28;20178;-52
2022/12/23 11:04:42;;;;;;;19.42;3.22;;;14.80;99.90;;;;;;5014154;28;20175;-50
2022/12/23 11:07:12;;;;;;;17.45;2.80;;;15.10;99.90;;;;;;5013817;28;20178;-49
2022/12/23 11:09:58;;;;;;;15.37;2.93;;;;;;;;;;5013708;28;20182;-49
2022/12/23 11:12:38;;;;;;;25.33;3.33;;;14.40;99.90;;;;;;5013630;28;20170;-50
2022/12/23 11:15:04;;;;;;;25.70;2.70;;;14.50;99.90;;;;;;5013634;28;20257;-50
2022/12/23 11:17:33;;;;;;;23.73;3.50;;;13.80;99.90;;;;;;5013479;28;20582;-49
2022/12/23 11:20:12;;;;;;;25.50;4.10;;;13.80;99.90;;;;;;5013619;28;20633;-51
2022/12/23 11:22:49;;;;;;;24.93;3.13;;;13.90;99.90;;;;;;5013417;28;20170;-54
2022/12/23 11:25:29;;;;;;;19.93;3.33;;;14.60;99.90;;;;;;5013176;28;20179;-54
2022/12/23 11:28:18;;;;;;;23.73;3.50;;;14.10;99.90;;;;;;5013576;28;20174;-49
2022/12/23 11:31:06;;;;;;;31.98;4.22;;;12.20;99.90;;;;;;5013297;28;20171;-49
2022/12/23 11:33:36;;;;;;;23.90;3.40;;;14.30;99.90;;;;;;5011973;28;20515;-50
2022/12/23 11:36:22;;;;;;;17.73;2.55;;;14.80;99.90;;;;;;5013549;28;20177;-54
2022/12/23 11:38:51;;;;;;;24.50;3.83;;;14.60;99.90;;;;;;5012133;28;20217;-50
2022/12/23 11:41:22;;;;;;;29.85;4.22;;;14.40;99.90;;;;;;5010752;28;20226;-51
2022/12/23 11:44:16;;;;;;;17.63;3.40;;;13.90;99.90;;;;;;5009550;28;20174;-50
2022/12/23 11:46:42;;;;;;;28.83;4.50;;;;;;;;;;5008374;28;20665;-49
2022/12/23 11:49:16;;;;;;;26.07;4.83;;;13.90;99.90;;;;;;5008483;28;20221;-49
2022/12/23 11:52:06;;;;;;;26.77;3.53;;;15.40;99.90;;;;;;5011509;28;20178;-50
2022/12/23 11:54:32;;;;;;;20.80;3.55;;;16.90;99.90;;;;;;5002300;28;20206;-50
2022/12/23 11:57:04;;;;;;;24.60;3.95;;;15.70;99.90;;;;;;5009350;28;20229;-52
2022/12/23 11:59:39;;;;;;;24.80;3.90;;;14.30;99.90;;;;;;5010991;28;20174;-52
2022/12/23 12:02:14;;;;;;;26.38;3.75;;;15.00;99.90;;;;;;5006726;28;20178;-53
2022/12/23 12:04:41;;;;;;;35.00;4.22;;;14.40;99.90;;;;;;5012740;28;20272;-50
2022/12/23 12:07:13;;;;;;;27.83;3.80;;;13.80;99.90;;;;;;5011969;28;20174;-54
2022/12/23 12:09:41;;;;;;;28.07;3.90;;;13.20;99.90;;;;;;5012580;28;20178;-50
2022/12/23 12:12:20;;;;;;;23.27;3.80;;;13.50;99.90;;;;;;5012542;28;20224;-52
2022/12/23 12:14:49;;;;;;;26.67;3.93;;;13.70;99.90;;;;;;5012592;28;20171;-50
2022/12/23 12:17:26;;;;;;;34.47;4.37;;;13.20;99.90;;;;;;5012672;28;20260;-52
2022/12/23 12:19:56;;;;;;;25.33;4.40;;;13.40;99.90;;;;;;5012816;28;20178;-50
2022/12/23 12:22:39;;;;;;;20.70;3.30;;;13.00;99.90;;;;;;5012556;28;20316;-51
2022/12/23 12:25:18;;;;;;;22.37;3.97;;;12.80;99.90;;;;;;5012659;28;20174;-51
2022/12/23 12:27:58;;;;;;;35.13;4.97;;;12.30;99.90;;;;;;5011926;28;20182;-50
2022/12/23 12:30:32;;;;;;;24.37;3.57;;;12.60;99.90;;;;;;5011777;28;20189;-51
2022/12/23 12:33:27;;;;;;;34.43;4.43;;;12.30;99.90;;;;;;5004627;28;20191;-53
2022/12/23 12:36:00;;;;;;;18.17;2.97;;;11.90;99.90;;;;;;5012312;28;20170;-50
2022/12/23 12:38:31;;;;;;;25.53;3.40;;;11.90;99.90;;;;;;5012115;28;20198;-52
2022/12/23 12:41:29;;;;;;;29.50;3.87;;;11.90;99.90;;;;;;5011241;28;20201;-53
2022/12/23 12:43:59;;;;;;;22.47;2.67;;;12.40;99.90;;;;;;5004924;28;20603;-51
2022/12/23 12:46:52;;;;;;;23.23;2.87;;;12.00;99.90;;;;;;5010770;28;20664;-50
2022/12/23 12:49:44;;;;;;;31.47;4.47;;;11.90;99.90;;;;;;5011935;28;20298;-51
2022/12/23 12:52:18;;;;;;;34.97;3.83;;;11.80;99.90;;;;;;5011602;28;20234;-50
2022/12/23 12:54:46;;;;;;;37.87;4.93;;;12.40;99.90;;;;;;5010294;28;20252;-51
2022/12/23 12:57:15;;;;;;;38.57;4.07;;;12.70;99.90;;;;;;5009877;28;20221;-50
2022/12/23 12:59:41;;;;;;;34.83;4.07;;;13.00;99.90;;;;;;5010111;28;20626;-50
2022/12/23 13:02:19;;;;;;;24.80;3.13;;;12.80;99.90;;;;;;5010076;28;20665;-50
2022/12/23 13:05:13;;;;;;;19.03;3.10;;;12.70;99.90;;;;;;5010179;28;20261;-50
2022/12/23 13:08:11;;;;;;;23.53;3.67;;;12.70;99.90;;;;;;5010434;28;20175;-51
2022/12/23 13:11:12;;;;;;;23.17;3.17;;;12.80;99.90;;;;;;5011769;28;20256;-50
2022/12/23 13:13:48;;;;;;;29.27;4.80;;;12.70;99.90;;;;;;5010383;28;20179;-52
2022/12/23 13:16:38;;;;;;;24.77;4.03;;;12.70;99.90;;;;;;5026848;28;20178;-52
2022/12/23 13:19:21;;;;;;;25.67;3.37;;;12.70;99.90;;;;;;5011619;28;20186;-51
2022/12/23 13:21:53;;;;;;;25.00;3.50;;;;;;;;;;5011849;28;20177;-49
2022/12/23 13:24:32;;;;;;;30.23;4.47;;;12.50;99.90;;;;;;5011563;28;20186;-49
2022/12/23 13:27:16;;;;;;;13.57;2.17;;;12.20;99.90;;;;;;5011497;28;20639;-49
2022/12/23 13:29:59;;;;;;;28.80;4.23;;;12.20;99.90;;;;;;5011504;28;20194;-50
2022/12/23 13:32:43;;;;;;;18.53;3.37;;;12.60;99.90;;;;;;5011503;28;20175;-52
2022/12/23 13:35:40;;;;;;;25.87;3.53;;;13.20;99.90;;;;;;5011402;28;20181;-49
2022/12/23 13:38:30;;;;;;;40.77;5.37;;;12.80;99.90;;;;;;5010615;28;20218;-49
2022/12/23 13:41:11;;;;;;;32.83;4.00;;;12.80;99.90;;;;;;5011374;28;20273;-49
2022/12/23 13:43:47;;;;;;;36.80;4.13;;;12.40;99.90;;;;;;5011238;28;20158;-49
2022/12/23 13:46:35;;;;;;;39.37;4.83;;;12.40;99.90;;;;;;5010801;28;20170;-51
2022/12/23 13:49:43;;;;;;;26.43;3.77;;;12.40;99.90;;;;;;5011067;28;20296;-49
2022/12/23 13:52:38;;;;;;;25.57;4.20;;;12.20;99.90;;;;;;5011135;28;20174;-52
2022/12/23 13:55:32;;;;;;;35.03;4.57;;;11.30;99.90;;;;;;4999728;28;20206;-50
2022/12/23 13:58:09;;;;;;;20.97;3.13;;;12.30;99.90;;;;;;5010979;28;20222;-52
2022/12/23 14:00:35;;;;;;;28.63;4.67;;;;;;;;;;4994565;28;20175;-54
2022/12/23 14:03:01;;;;;;;35.50;6.00;;;12.30;99.90;;;;;;4991384;28;20198;-50
2022/12/23 14:05:44;;;;;;;73.10;22.70;;;12.30;99.90;;;;;;4991429;28;20265;-49
2022/12/23 14:08:18;;;;;;;40.20;6.43;;;12.40;99.90;;;;;;4991493;28;20661;-49